Time;durP1;ratioP1;P1;durP2;ratioP2;P2;SDS_P1;SDS_P2;PMS_P1;PMS_P2;Temp;Humidity;BMP_temperature;BMP_pressure;BME280_temperature;BME280_humidity;BME280_pressure;Samples;Min_cycle;Max_cycle;Signal;HPM_P1;HPM_P2
2022/03/03 00:02:05;;;;;;;0.32;0.30;;;;;;;18.30;29.92;101556.94;4994074;28;20058;-72
2022/03/03 00:04:31;;;;;;;0.50;0.28;;;;;;;18.38;28.96;101553.88;4998973;28;20142;-74
2022/03/03 00:06:57;;;;;;;0.63;0.30;;;;;;;18.29;31.14;101566.16;4996016;28;20116;-72
2022/03/03 00:09:23;;;;;;;1.42;0.43;;;;;;;18.13;30.92;101557.69;4995923;28;20611;-75
2022/03/03 00:11:50;;;;;;;2.03;0.40;;;;;;;18.04;31.74;101556.41;4996008;28;20034;-73
2022/03/03 00:14:16;;;;;;;0.57;0.28;;;;;;;18.02;31.49;101555.00;5002289;28;20139;-75
2022/03/03 00:16:42;;;;;;;2.03;0.35;;;;;;;17.95;30.63;101555.13;4995577;28;20061;-73
2022/03/03 00:19:09;;;;;;;0.68;0.30;;;;;;;17.99;29.64;101550.03;5011122;28;20030;-74
2022/03/03 00:21:35;;;;;;;1.05;0.40;;;;;;;17.93;30.84;101554.53;4998697;28;20055;-76
2022/03/03 00:24:01;;;;;;;1.33;0.40;;;;;;;17.91;30.45;101551.25;4997455;28;20034;-75
2022/03/03 00:26:27;;;;;;;0.68;0.40;;;;;;;17.81;30.26;101551.00;4995632;28;20104;-74
2022/03/03 00:28:54;;;;;;;0.70;0.40;;;;;;;17.65;30.81;101550.63;4994842;28;20436;-78
2022/03/03 00:31:20;;;;;;;1.38;0.50;;;;;;;17.62;30.39;101548.41;4991718;28;20034;-77
2022/03/03 00:33:46;;;;;;;0.88;0.50;;;;;;;17.66;32.13;101544.19;5000225;28;20021;-77
2022/03/03 00:36:12;;;;;;;0.90;0.52;;;;;;;17.47;31.17;101542.63;5007451;28;20089;-75
2022/03/03 00:38:39;;;;;;;1.77;0.40;;;;;;;17.37;32.79;101550.50;4963663;28;20362;-70
2022/03/03 00:41:05;;;;;;;1.25;0.40;;;;;;;17.32;31.94;101547.66;4980893;28;20091;-72
2022/03/03 00:43:31;;;;;;;0.50;0.32;;;;;;;17.20;32.47;101549.53;4977720;28;20035;-74
2022/03/03 00:45:57;;;;;;;1.58;0.45;;;;;;;17.03;32.83;101549.38;4973186;28;20465;-73
2022/03/03 00:48:23;;;;;;;0.98;0.40;;;;;;;17.01;34.46;101544.22;4973143;28;20035;-69
2022/03/03 00:50:49;;;;;;;2.50;0.40;;;;;;;16.97;34.29;101545.72;4973918;28;20449;-70
2022/03/03 00:53:16;;;;;;;1.48;0.30;;;;;;;16.98;35.86;101541.97;4975410;28;20066;-72
2022/03/03 00:55:42;;;;;;;0.38;0.22;;;;;;;16.86;37.90;101541.13;4976694;28;20023;-73
2022/03/03 00:58:09;;;;;;;0.73;0.38;;;;;;;16.86;35.76;101533.00;4974605;28;20026;-70
2022/03/03 01:00:35;;;;;;;1.80;0.40;;;;;;;16.71;37.16;101538.00;4973863;28;20022;-71
2022/03/03 01:03:02;;;;;;;0.52;0.30;;;;;;;16.80;36.18;101534.75;4975487;28;20361;-71
2022/03/03 01:05:28;;;;;;;0.75;0.40;;;;;;;16.66;38.51;101535.13;4976529;28;20441;-70
2022/03/03 01:07:54;;;;;;;1.20;0.40;;;;;;;16.56;37.78;101538.41;4971741;28;20137;-70
2022/03/03 01:10:20;;;;;;;0.60;0.40;;;;;;;16.58;38.21;101545.22;4973029;28;20037;-70
2022/03/03 01:12:47;;;;;;;2.15;0.50;;;;;;;16.55;37.71;101544.84;4974676;28;20037;-70
2022/03/03 01:15:14;;;;;;;1.63;0.30;;;;;;;16.36;39.00;101542.16;4972865;28;20022;-70
2022/03/03 01:17:40;;;;;;;1.38;0.60;;;;;;;16.31;40.14;101543.91;4974307;28;20034;-76
2022/03/03 01:20:08;;;;;;;1.08;0.40;;;;;;;16.18;40.13;101539.50;4976173;28;20039;-74
2022/03/03 01:22:34;;;;;;;2.33;0.50;;;;;;;15.98;41.97;101537.00;4974640;28;20089;-74
2022/03/03 01:25:01;;;;;;;1.98;0.60;;;;;;;15.90;43.16;101539.19;4977543;28;20133;-74
2022/03/03 01:27:27;;;;;;;2.38;0.50;;;;;;;15.83;43.45;101534.69;4973902;28;20035;-75
2022/03/03 01:29:54;;;;;;;5.18;0.68;;;;;;;15.70;43.57;101534.00;4965415;28;20088;-75
2022/03/03 01:32:20;;;;;;;1.50;0.45;;;;;;;15.66;43.56;101528.22;4965129;28;20458;-75
2022/03/03 01:34:46;;;;;;;1.25;0.40;;;;;;;15.56;44.00;101525.19;4964879;28;20041;-75
2022/03/03 01:37:12;;;;;;;2.42;0.40;;;;;;;15.46;44.34;101528.38;4966555;28;20027;-75
2022/03/03 01:39:38;;;;;;;3.38;0.60;;;;;;;15.56;43.63;101517.09;4980289;28;20035;-75
2022/03/03 01:42:05;;;;;;;1.85;0.50;;;;;;;15.21;44.77;101517.63;4966096;28;20040;-75
2022/03/03 01:44:31;;;;;;;0.93;0.40;;;;;;;15.05;45.81;101523.53;4973854;28;20439;-75
2022/03/03 01:46:58;;;;;;;0.35;0.20;;;;;;;15.05;45.77;101526.25;4970583;28;20070;-75
2022/03/03 01:49:26;;;;;;;0.65;0.40;;;;;;;15.07;46.36;101526.84;4973770;28;20062;-76
2022/03/03 01:51:53;;;;;;;1.60;0.60;;;;;;;15.00;46.34;101520.69;4973873;28;20030;-74
2022/03/03 01:54:19;;;;;;;2.55;0.52;;;;;;;14.70;48.72;101525.84;4973324;28;20034;-74
2022/03/03 01:56:47;;;;;;;0.52;0.30;;;;;;;14.67;48.81;101518.19;4972439;28;20030;-77
2022/03/03 01:59:13;;;;;;;1.92;0.40;;;;;;;14.70;48.33;101523.97;4968379;28;20062;-69
2022/03/03 02:01:41;;;;;;;3.60;0.60;;;;;;;14.48;50.04;101526.16;4971574;28;20033;-69
2022/03/03 02:04:09;;;;;;;1.58;0.47;;;;;;;14.39;50.25;101518.53;4985624;28;20035;-72
2022/03/03 02:06:37;;;;;;;1.40;0.45;;;;;;;14.38;50.23;101522.25;4970997;28;20476;-72
2022/03/03 02:09:04;;;;;;;1.05;0.40;;;;;;;14.21;51.17;101521.91;4973535;28;20113;-72
2022/03/03 02:11:32;;;;;;;1.90;0.30;;;;;;;14.13;51.14;101519.47;4972290;28;20436;-70
2022/03/03 02:13:59;;;;;;;0.73;0.43;;;;;;;14.09;50.68;101513.66;4974465;28;20038;-69
2022/03/03 02:16:25;;;;;;;0.35;0.30;;;;;;;13.97;50.25;101516.19;4975365;28;20038;-72
2022/03/03 02:18:52;;;;;;;1.27;0.35;;;;;;;13.95;50.04;101507.50;4972080;28;20037;-72
2022/03/03 02:21:18;;;;;;;1.38;0.52;;;;;;;13.88;49.98;101504.03;4973447;28;20030;-72
2022/03/03 02:23:44;;;;;;;2.05;0.60;;;;;;;13.84;50.17;101508.16;4975013;28;20035;-69
2022/03/03 02:26:19;;;;;;;1.50;0.50;;;;;;;13.79;51.01;101507.97;4989218;28;20078;-71
2022/03/03 02:28:50;;;;;;;5.32;1.02;;;;;;;13.71;52.14;101516.25;4985503;28;20105;-71
2022/03/03 02:31:17;;;;;;;3.13;0.73;;;;;;;13.67;52.94;101520.41;4972462;28;20034;-71
2022/03/03 02:33:44;;;;;;;3.20;0.80;;;;;;;13.65;53.31;101517.09;4970086;28;20062;-71
2022/03/03 02:36:22;;;;;;;3.63;1.05;;;;;;;13.56;53.96;101526.44;4972588;28;20053;-72
2022/03/03 02:38:51;;;;;;;3.90;0.90;;;;;;;13.53;54.01;101516.09;4971751;28;20026;-71
2022/03/03 02:41:18;;;;;;;6.90;0.98;;;;;;;13.41;54.07;101519.41;4973988;28;20080;-72
2022/03/03 02:43:44;;;;;;;1.52;0.80;;;;;;;13.31;53.97;101516.31;4986954;28;20116;-71
2022/03/03 02:46:11;;;;;;;2.42;0.52;;;;;;;13.23;54.33;101511.16;4973068;28;20031;-69
2022/03/03 02:48:38;;;;;;;1.35;0.68;;;;;;;13.18;54.13;101502.84;4972503;28;20034;-69
2022/03/03 02:51:05;;;;;;;2.85;0.80;;;;;;;13.04;54.47;101504.69;4973030;28;20026;-69
2022/03/03 02:53:31;;;;;;;1.65;0.80;;;;;;;12.93;54.27;101506.13;4973264;28;20026;-71
2022/03/03 02:55:58;;;;;;;2.13;0.77;;;;;;;12.90;54.73;101513.78;4971652;28;20029;-69
2022/03/03 02:58:24;;;;;;;3.22;1.05;;;;;;;12.82;54.65;101508.59;4971618;28;20033;-70
2022/03/03 03:00:50;;;;;;;1.60;0.80;;;;;;;12.71;55.35;101499.28;4973017;28;20022;-71
2022/03/03 03:03:18;;;;;;;2.55;0.75;;;;;;;12.66;56.34;101504.47;4987128;28;20035;-71
2022/03/03 03:05:45;;;;;;;2.35;1.00;;;;;;;12.51;56.66;101499.25;4973571;28;20424;-71
2022/03/03 03:08:12;;;;;;;3.40;0.80;;;;;;;12.42;57.67;101512.00;4972459;28;20039;-71
2022/03/03 03:10:39;;;;;;;1.65;0.90;;;;;;;12.31;58.24;101509.09;4973048;28;20030;-72
2022/03/03 03:13:06;;;;;;;3.15;1.33;;;;;;;12.24;58.71;101518.97;4972193;28;20026;-71
2022/03/03 03:15:34;;;;;;;3.08;1.20;;;;;;;12.17;59.33;101518.94;4972015;28;20335;-72
2022/03/03 03:18:20;;;;;;;3.08;1.05;;;;;;;12.13;59.74;101520.38;4974240;28;20046;-72
2022/03/03 03:20:50;;;;;;;1.92;0.75;;;;;;;11.94;60.35;101521.09;4973256;28;20117;-74
2022/03/03 03:23:18;;;;;;;1.92;0.75;;;;;;;11.89;61.08;101513.66;4977747;28;20102;-73
2022/03/03 03:25:44;;;;;;;4.55;1.05;;;;;;;11.81;61.33;101513.78;4973001;28;20031;-75
2022/03/03 03:28:12;;;;;;;3.25;1.10;;;;;;;11.65;61.80;101512.22;4972910;28;20035;-77
2022/03/03 03:30:39;;;;;;;2.40;1.00;;;;;;;11.61;62.31;101508.31;4973664;28;20034;-78
2022/03/03 03:33:05;;;;;;;2.03;1.33;;;;;;;11.59;62.96;101504.97;4992038;28;20058;-77
2022/03/03 03:35:31;;;;;;;3.53;0.85;;;;;;;11.63;63.18;101511.59;4973902;28;20039;-78
2022/03/03 03:37:58;;;;;;;2.17;0.82;;;;;;;11.53;63.04;101505.75;4978301;28;20030;-71
2022/03/03 03:40:24;;;;;;;1.98;0.70;;;;;;;11.52;62.95;101506.78;4975852;28;20023;-71
2022/03/03 03:42:51;;;;;;;3.25;0.90;;;;;;;11.48;63.32;101509.03;4975853;28;20041;-70
2022/03/03 03:45:18;;;;;;;1.95;0.95;;;;;;;11.43;63.82;101507.94;4975159;28;20117;-71
2022/03/03 03:47:44;;;;;;;2.90;1.10;;;;;;;11.39;64.41;101498.66;4976034;28;20030;-71
2022/03/03 03:50:13;;;;;;;4.30;0.80;;;;;;;11.37;63.83;101506.88;4976085;28;20026;-71
2022/03/03 03:52:41;;;;;;;3.28;0.82;;;;;;;11.25;64.41;101505.75;4974956;28;20034;-71
2022/03/03 03:55:09;;;;;;;2.03;1.10;;;;;;;11.28;64.71;101510.75;4975185;28;20030;-70
2022/03/03 03:57:36;;;;;;;2.70;0.95;;;;;;;11.19;64.93;101518.09;4976368;28;20023;-69
2022/03/03 04:00:08;;;;;;;4.03;1.35;;;;;;;11.18;64.69;101511.06;4974807;28;20117;-69
2022/03/03 04:02:34;;;;;;;1.48;0.80;;;;;;;11.09;65.16;101514.91;4973958;28;20030;-71
2022/03/03 04:05:01;;;;;;;2.92;1.40;;;;;;;11.14;65.04;101512.47;4973715;28;20057;-69
2022/03/03 04:07:27;;;;;;;2.70;0.90;;;;;;;11.04;64.95;101510.13;4976035;28;20039;-72
2022/03/03 04:09:53;;;;;;;3.40;1.00;;;;;;;10.99;65.21;101509.03;4974810;28;20027;-71
2022/03/03 04:12:19;;;;;;;2.63;0.80;;;;;;;10.95;65.23;101515.81;4975658;28;20110;-73
2022/03/03 04:14:45;;;;;;;2.97;0.70;;;;;;;10.90;65.98;101519.06;4977304;28;20844;-77
2022/03/03 04:17:11;;;;;;;2.47;0.90;;;;;;;10.89;65.82;101524.63;4977924;28;20365;-76
2022/03/03 04:19:37;;;;;;;2.17;0.93;;;;;;;10.82;65.75;101524.53;4976121;28;20034;-76
2022/03/03 04:22:04;;;;;;;1.75;0.73;;;;;;;10.71;65.94;101517.00;4976771;28;20109;-76
2022/03/03 04:24:30;;;;;;;1.83;0.90;;;;;;;10.70;66.04;101526.06;4975159;28;20097;-77
2022/03/03 04:26:56;;;;;;;2.67;0.80;;;;;;;10.59;66.34;101535.41;4977048;28;20050;-75
2022/03/03 04:29:23;;;;;;;2.17;0.77;;;;;;;10.50;66.66;101536.56;4991886;28;20027;-79
2022/03/03 04:31:51;;;;;;;4.35;0.95;;;;;;;10.44;67.18;101532.78;4974889;28;20066;-75
2022/03/03 04:34:19;;;;;;;1.83;0.80;;;;;;;10.41;67.21;101535.00;4983625;28;20114;-75
2022/03/03 04:36:46;;;;;;;2.85;0.93;;;;;;;10.37;66.78;101529.19;4976423;28;20030;-75
2022/03/03 04:39:12;;;;;;;3.40;1.08;;;;;;;10.37;66.91;101528.38;4976443;28;20022;-79
2022/03/03 04:41:39;;;;;;;2.75;1.08;;;;;;;10.34;67.05;101531.44;4978055;28;20022;-77
2022/03/03 04:44:06;;;;;;;2.25;0.95;;;;;;;10.34;66.63;101528.75;4975369;28;20038;-74
2022/03/03 04:46:32;;;;;;;3.28;0.90;;;;;;;10.22;66.54;101545.25;4974794;28;20122;-73
2022/03/03 04:48:59;;;;;;;2.88;1.33;;;;;;;10.13;66.89;101540.19;4974188;28;20022;-73
2022/03/03 04:51:26;;;;;;;3.45;0.82;;;;;;;10.09;67.53;101542.38;4973756;28;20879;-72
2022/03/03 04:53:52;;;;;;;3.13;0.93;;;;;;;10.02;67.53;101544.97;4974344;28;20465;-72
2022/03/03 04:56:19;;;;;;;2.50;0.70;;;;;;;9.94;67.57;101546.94;4974376;28;20068;-73
2022/03/03 04:58:45;;;;;;;4.35;0.98;;;;;;;9.89;68.16;101538.63;4974997;28;20093;-70
2022/03/03 05:01:14;;;;;;;2.42;0.77;;;;;;;9.82;68.17;101543.03;4974823;28;20026;-73
2022/03/03 05:03:40;;;;;;;1.73;0.80;;;;;;;9.79;68.20;101547.75;4989650;28;20116;-71
2022/03/03 05:06:06;;;;;;;4.20;0.70;;;;;;;9.76;68.09;101545.44;4971946;28;20054;-72
2022/03/03 05:08:33;;;;;;;2.88;0.85;;;;;;;9.68;68.44;101553.53;4975704;28;20066;-73
2022/03/03 05:10:59;;;;;;;2.15;1.05;;;;;;;9.65;68.42;101555.75;4974942;28;20027;-73
2022/03/03 05:13:25;;;;;;;2.88;1.00;;;;;;;9.61;68.67;101562.50;4974584;28;20027;-72
2022/03/03 05:15:51;;;;;;;1.17;0.70;;;;;;;9.52;69.06;101562.53;4974942;28;20381;-72
2022/03/03 05:18:18;;;;;;;3.05;0.90;;;;;;;9.43;69.03;101558.28;4973982;28;20026;-72
2022/03/03 05:20:44;;;;;;;4.07;0.98;;;;;;;9.45;69.44;101558.94;4973668;28;20041;-72
2022/03/03 05:23:10;;;;;;;3.65;0.90;;;;;;;9.40;69.27;101560.50;4973138;28;20035;-69
2022/03/03 05:25:36;;;;;;;2.15;0.80;;;;;;;9.37;69.46;101552.84;4988964;28;20034;-72
2022/03/03 05:28:03;;;;;;;2.53;1.10;;;;;;;9.34;69.47;101558.56;4972490;28;20934;-72
2022/03/03 05:30:29;;;;;;;2.10;0.90;;;;;;;9.28;70.00;101556.59;4972879;28;20054;-72
2022/03/03 05:32:57;;;;;;;1.20;0.70;;;;;;;9.25;69.95;101553.25;4974535;28;20477;-72
2022/03/03 05:35:23;;;;;;;3.13;1.00;;;;;;;9.24;69.96;101542.78;4974355;28;20041;-71
2022/03/03 05:37:50;;;;;;;2.88;0.93;;;;;;;9.07;70.17;101539.41;4974169;28;20031;-72
2022/03/03 05:40:16;;;;;;;3.20;1.00;;;;;;;9.10;70.70;101539.03;4974117;28;20026;-69
2022/03/03 05:42:43;;;;;;;2.67;1.00;;;;;;;9.04;70.75;101534.41;4974006;28;20026;-70
2022/03/03 05:45:11;;;;;;;1.90;0.80;;;;;;;9.06;70.35;101537.75;4973959;28;20076;-69
2022/03/03 05:47:37;;;;;;;1.50;0.80;;;;;;;9.06;70.31;101534.25;4972502;28;20027;-70
2022/03/03 05:50:05;;;;;;;3.13;1.00;;;;;;;8.98;70.13;101541.28;4974955;28;20515;-70
2022/03/03 05:52:32;;;;;;;2.45;0.88;;;;;;;8.87;70.59;101554.22;4974600;28;20031;-70
2022/03/03 05:54:59;;;;;;;4.10;1.10;;;;;;;8.82;70.69;101548.59;4972346;28;20027;-71
2022/03/03 05:57:38;;;;;;;2.38;0.90;;;;;;;8.78;70.96;101555.31;4973758;28;20022;-72
2022/03/03 06:00:12;;;;;;;1.75;0.70;;;;;;;8.82;71.33;101553.91;4973395;28;20026;-76
2022/03/03 06:02:44;;;;;;;2.58;0.90;;;;;;;8.75;71.04;101560.97;4972917;28;20338;-75
2022/03/03 06:05:13;;;;;;;1.92;0.80;;;;;;;8.73;71.14;101563.84;4974640;28;20054;-77
2022/03/03 06:07:44;;;;;;;4.30;0.95;;;;;;;8.72;71.28;101571.00;4974203;28;20050;-73
2022/03/03 06:10:14;;;;;;;2.83;1.00;;;;;;;8.75;71.13;101564.47;4990347;28;20114;-77
2022/03/03 06:12:48;;;;;;;1.88;0.80;;;;;;;8.70;71.34;101559.66;4973485;28;20106;-76
2022/03/03 06:15:15;;;;;;;3.85;1.02;;;;;;;8.64;71.60;101546.19;4973471;28;20050;-75
2022/03/03 06:17:44;;;;;;;3.00;0.60;;;;;;;8.63;71.69;101548.03;4974264;28;20049;-73
2022/03/03 06:20:12;;;;;;;4.32;1.02;;;;;;;8.63;71.79;101545.38;4969586;28;20031;-73
2022/03/03 06:22:38;;;;;;;3.50;0.98;;;;;;;8.64;71.58;101548.88;4971640;28;20687;-72
2022/03/03 06:25:05;;;;;;;3.53;0.80;;;;;;;8.64;71.28;101544.34;4974067;28;20033;-72
2022/03/03 06:27:32;;;;;;;3.70;0.95;;;;;;;8.61;71.26;101547.41;4972397;28;20446;-72
2022/03/03 06:29:59;;;;;;;1.92;0.85;;;;;;;8.61;71.60;101541.22;4973781;28;20366;-72
2022/03/03 06:32:25;;;;;;;3.22;1.08;;;;;;;8.64;71.01;101539.03;4974525;28;20053;-74
2022/03/03 06:34:51;;;;;;;2.78;1.02;;;;;;;8.67;71.01;101537.84;4973931;28;20429;-72
2022/03/03 06:37:18;;;;;;;3.47;0.85;;;;;;;8.60;70.92;101536.88;4972524;28;20023;-71
2022/03/03 06:39:44;;;;;;;2.13;0.57;;;;;;;8.53;70.82;101531.41;4972739;28;20050;-71
2022/03/03 06:42:10;;;;;;;1.33;0.60;;;;;;;8.55;71.19;101529.41;4977651;28;20061;-71
2022/03/03 06:44:36;;;;;;;2.55;0.85;;;;;;;8.52;71.33;101515.59;4972680;28;20066;-74
2022/03/03 06:47:02;;;;;;;3.45;0.95;;;;;;;8.48;71.49;101528.44;4974087;28;20031;-74
2022/03/03 06:49:29;;;;;;;2.85;0.85;;;;;;;8.14;72.96;101540.25;4974521;28;20037;-74
2022/03/03 06:51:57;;;;;;;1.77;1.00;;;;;;;8.18;72.35;101528.22;4973964;28;20034;-74
2022/03/03 06:54:24;;;;;;;2.70;0.70;;;;;;;8.16;72.37;101527.59;4971559;28;20106;-72
2022/03/03 06:56:53;;;;;;;1.92;0.80;;;;;;;8.16;72.12;101524.06;4973335;28;20027;-74
2022/03/03 06:59:22;;;;;;;1.52;0.82;;;;;;;8.14;72.19;101532.25;4974536;28;20106;-71
2022/03/03 07:01:50;;;;;;;2.67;0.80;;;;;;;8.08;72.06;101532.94;4973381;28;20346;-74
2022/03/03 07:04:18;;;;;;;1.77;0.63;;;;;;;8.03;72.34;101539.78;4973561;28;20022;-74
2022/03/03 07:06:46;;;;;;;3.80;1.17;;;;;;;8.04;72.20;101531.59;4972968;28;20461;-74
2022/03/03 07:09:12;;;;;;;3.88;0.95;;;;;;;8.01;72.28;101526.63;4976287;28;20039;-74
2022/03/03 07:11:42;;;;;;;1.70;0.70;;;;;;;7.96;72.08;101528.97;4976730;28;20053;-74
2022/03/03 07:14:10;;;;;;;1.95;0.68;;;;;;;7.98;72.45;101520.81;4977841;28;20027;-73
2022/03/03 07:17:04;;;;;;;1.60;0.90;;;;;;;7.97;71.94;101519.16;4978195;28;20096;-74
2022/03/03 07:19:39;;;;;;;3.83;0.90;;;;;;;7.90;72.17;101513.69;4959568;28;20351;-72
2022/03/03 07:22:33;;;;;;;1.15;0.75;;;;;;;7.80;72.09;101505.06;4976533;28;20034;-72
2022/03/03 07:25:13;;;;;;;2.95;0.88;;;;;;;7.83;71.65;101496.72;4975984;28;20377;-72
2022/03/03 07:27:44;;;;;;;1.55;0.60;;;;;;;7.84;71.32;101498.38;4975925;28;20121;-72
2022/03/03 07:30:14;;;;;;;2.20;0.77;;;;;;;7.77;71.26;101502.72;4977499;28;20030;-71
2022/03/03 07:32:52;;;;;;;1.40;0.65;;;;;;;7.75;70.73;101499.41;4977384;28;20078;-72
2022/03/03 07:35:22;;;;;;;1.30;0.80;;;;;;;7.72;70.60;101505.06;4976238;28;20026;-71
2022/03/03 07:38:02;;;;;;;1.10;0.80;;;;;;;7.65;70.57;101497.75;4974962;28;20114;-72
2022/03/03 07:40:31;;;;;;;3.28;0.73;;;;;;;7.64;70.72;101497.94;4975092;28;20034;-74
2022/03/03 07:42:59;;;;;;;0.68;0.63;;;;;;;7.63;70.79;101498.94;4974612;28;20025;-74
2022/03/03 07:45:26;;;;;;;1.95;0.80;;;;;;;7.58;71.06;101491.44;4973366;28;20030;-70
2022/03/03 07:47:57;;;;;;;1.02;0.60;;;;;;;7.50;70.90;101480.00;4975251;28;20042;-72
2022/03/03 07:50:25;;;;;;;3.65;0.68;;;;;;;7.44;70.73;101486.84;4975315;28;20109;-71
2022/03/03 07:52:53;;;;;;;1.25;0.70;;;;;;;7.38;70.23;101488.34;4975779;28;20054;-70
2022/03/03 07:55:20;;;;;;;1.67;0.60;;;;;;;7.34;69.69;101487.00;4972741;28;20764;-71
2022/03/03 07:58:00;;;;;;;2.70;0.80;;;;;;;7.29;69.30;101489.34;4973887;28;20037;-73
2022/03/03 08:00:33;;;;;;;2.47;0.73;;;;;;;7.32;69.32;101490.81;4976949;28;20026;-76
2022/03/03 08:03:02;;;;;;;1.40;0.95;;;;;;;7.28;69.21;101495.69;4975951;28;20030;-78
2022/03/03 08:05:29;;;;;;;1.65;0.60;;;;;;;7.26;69.30;101488.84;4976993;28;20089;-78
2022/03/03 08:07:57;;;;;;;3.15;0.93;;;;;;;7.09;70.50;101490.69;4976920;28;20107;-78
2022/03/03 08:10:27;;;;;;;1.30;0.65;;;;;;;7.10;70.11;101485.19;4975853;28;20027;-77
2022/03/03 08:12:58;;;;;;;1.70;0.60;;;;;;;7.13;69.96;101474.22;4977430;28;20364;-78
2022/03/03 08:15:25;;;;;;;1.23;0.60;;;;;;;7.11;69.64;101475.41;4976807;28;20377;-77
2022/03/03 08:17:53;;;;;;;2.58;0.68;;;;;;;7.05;69.53;101476.91;4975590;28;20031;-77
2022/03/03 08:20:21;;;;;;;3.63;1.00;;;;;;;7.03;69.58;101470.88;4988739;28;20046;-78
2022/03/03 08:22:47;;;;;;;1.52;0.60;;;;;;;7.01;69.44;101474.72;4976239;28;20098;-78
2022/03/03 08:25:17;;;;;;;1.70;0.65;;;;;;;6.99;68.42;101482.03;4975679;28;20042;-78
2022/03/03 08:27:43;;;;;;;1.17;0.57;;;;;;;6.98;67.89;101481.19;4991087;28;20066;-77
2022/03/03 08:30:12;;;;;;;1.25;0.70;;;;;;;6.98;67.65;101478.53;4976573;28;20023;-77
2022/03/03 08:32:41;;;;;;;1.65;0.70;;;;;;;6.96;67.69;101477.88;4975247;28;20031;-78
2022/03/03 08:35:22;;;;;;;0.75;0.60;;;;;;;6.96;68.19;101469.06;4975490;28;20038;-78
2022/03/03 08:38:05;;;;;;;0.65;0.43;;;;;;;6.93;67.96;101477.38;4976009;28;20363;-78
2022/03/03 08:40:32;;;;;;;1.40;0.60;;;;;;;6.90;68.09;101478.56;4972586;28;20113;-72
2022/03/03 08:43:04;;;;;;;1.02;0.52;;;;;;;6.92;67.87;101467.75;4974389;28;20023;-71
2022/03/03 08:45:33;;;;;;;2.00;1.15;;;;;;;6.91;68.00;101466.91;4974503;28;20042;-71
2022/03/03 08:48:14;;;;;;;1.50;0.57;;;;;;;6.85;68.69;101476.38;4975472;28;20030;-71
2022/03/03 08:50:42;;;;;;;1.38;0.70;;;;;;;6.82;68.92;101482.03;4990505;28;20061;-72
2022/03/03 08:53:09;;;;;;;1.77;0.70;;;;;;;6.83;68.81;101477.56;4974603;28;20034;-71
2022/03/03 08:55:37;;;;;;;0.73;0.40;;;;;;;6.85;69.19;101476.38;4974197;28;20453;-71
2022/03/03 08:58:06;;;;;;;2.50;0.60;;;;;;;6.86;68.60;101453.28;4975865;28;20019;-76
2022/03/03 09:00:32;;;;;;;2.40;0.85;;;;;;;6.85;68.46;101443.63;4975172;28;20037;-76
2022/03/03 09:03:00;;;;;;;0.60;0.57;;;;;;;6.88;68.57;101449.47;4979791;28;20037;-77
2022/03/03 09:05:26;;;;;;;3.10;0.70;;;;;;;6.88;68.84;101451.25;4975110;28;20034;-77
2022/03/03 09:07:53;;;;;;;0.73;0.50;;;;;;;6.85;69.11;101467.56;4974200;28;20154;-76
2022/03/03 09:10:19;;;;;;;1.23;0.70;;;;;;;6.79;68.95;101465.59;4974651;28;20031;-77
2022/03/03 09:12:45;;;;;;;0.43;0.43;;;;;;;6.81;69.27;101463.56;4974315;28;20410;-76
2022/03/03 09:15:12;;;;;;;1.98;0.68;;;;;;;6.85;69.03;101465.75;4973631;28;20105;-77
2022/03/03 09:17:39;;;;;;;2.45;0.70;;;;;;;6.87;69.04;101438.97;4974963;28;20026;-77
2022/03/03 09:20:11;;;;;;;1.45;0.70;;;;;;;6.94;68.72;101436.44;4974565;28;20050;-76
2022/03/03 09:22:38;;;;;;;1.55;0.60;;;;;;;6.88;68.58;101437.97;4975070;28;20046;-77
2022/03/03 09:25:04;;;;;;;1.83;0.65;;;;;;;6.84;69.66;101436.66;4972829;28;20038;-76
2022/03/03 09:27:30;;;;;;;0.98;0.52;;;;;;;6.90;69.63;101427.16;4974507;28;20366;-76
2022/03/03 09:29:57;;;;;;;2.42;0.57;;;;;;;6.85;69.55;101425.84;4973461;28;20027;-77
2022/03/03 09:32:23;;;;;;;1.77;0.60;;;;;;;6.82;69.18;101427.97;4974214;28;20022;-77
2022/03/03 09:34:49;;;;;;;1.77;0.80;;;;;;;6.81;69.33;101429.00;4974058;28;20042;-76
2022/03/03 09:37:16;;;;;;;1.25;0.40;;;;;;;6.80;69.22;101420.19;4973317;28;20046;-77
2022/03/03 09:39:47;;;;;;;0.75;0.50;;;;;;;6.80;69.27;101417.50;4974412;28;20040;-76
2022/03/03 09:42:14;;;;;;;3.08;0.63;;;;;;;6.76;69.35;101408.19;4974024;28;20034;-77
2022/03/03 09:44:40;;;;;;;1.10;0.77;;;;;;;6.79;69.07;101421.19;4988742;28;20034;-78
2022/03/03 09:47:06;;;;;;;1.67;0.90;;;;;;;6.86;68.54;101418.69;4973640;28;20066;-77
2022/03/03 09:49:32;;;;;;;1.65;0.70;;;;;;;6.86;68.99;101411.53;4972646;28;20443;-78
2022/03/03 09:51:59;;;;;;;1.48;0.47;;;;;;;6.87;69.14;101409.69;4974568;28;20114;-78
2022/03/03 09:54:25;;;;;;;0.73;0.60;;;;;;;6.82;69.12;101422.66;4973791;28;20035;-78
2022/03/03 09:56:51;;;;;;;0.80;0.50;;;;;;;6.75;68.86;101411.03;4989068;28;20114;-78
2022/03/03 09:59:18;;;;;;;0.77;0.60;;;;;;;6.77;68.80;101409.84;4971849;28;20050;-71
2022/03/03 10:01:46;;;;;;;3.08;0.63;;;;;;;6.75;68.90;101405.72;4973904;28;20350;-72
2022/03/03 10:04:30;;;;;;;1.55;0.60;;;;;;;6.76;68.52;101405.53;4973995;28;20465;-71
2022/03/03 10:07:05;;;;;;;0.63;0.50;;;;;;;6.73;69.36;101413.03;4974171;28;20381;-71
2022/03/03 10:09:33;;;;;;;0.82;0.57;;;;;;;6.67;69.34;101409.22;4972847;28;20040;-72
2022/03/03 10:12:07;;;;;;;2.05;0.70;;;;;;;6.71;68.92;101399.06;4972376;28;20035;-71
2022/03/03 10:14:38;;;;;;;0.88;0.60;;;;;;;6.72;68.82;101412.22;4971155;28;20034;-71
2022/03/03 10:17:05;;;;;;;1.80;0.70;;;;;;;6.79;68.50;101410.53;4973316;28;20026;-71
2022/03/03 10:19:33;;;;;;;1.33;0.50;;;;;;;6.80;68.46;101400.72;4973837;28;20116;-77
2022/03/03 10:21:59;;;;;;;2.03;0.60;;;;;;;6.81;68.47;101397.06;4974227;28;20031;-77
2022/03/03 10:24:30;;;;;;;0.90;0.57;;;;;;;6.89;68.43;101391.75;4972660;28;20050;-77
2022/03/03 10:27:02;;;;;;;1.63;0.55;;;;;;;6.86;68.59;101386.75;4973468;28;20035;-77
2022/03/03 10:29:30;;;;;;;1.40;0.57;;;;;;;6.93;68.36;101386.91;4974054;28;20121;-77
2022/03/03 10:31:57;;;;;;;1.58;0.60;;;;;;;6.97;68.06;101380.25;4972486;28;20445;-77
2022/03/03 10:34:28;;;;;;;1.52;0.60;;;;;;;7.02;68.44;101381.41;4973157;28;20026;-77
2022/03/03 10:37:03;;;;;;;2.17;0.63;;;;;;;7.05;68.08;101373.09;4973467;28;20018;-77
2022/03/03 10:39:43;;;;;;;0.77;0.50;;;;;;;7.01;68.47;101374.41;4972188;28;20040;-72
2022/03/03 10:42:18;;;;;;;1.05;0.50;;;;;;;7.05;68.29;101373.09;4972186;28;20106;-72
2022/03/03 10:44:45;;;;;;;0.82;0.55;;;;;;;7.09;68.10;101361.06;4973020;28;20023;-72
2022/03/03 10:47:16;;;;;;;2.17;0.50;;;;;;;7.12;68.36;101360.75;4971094;28;20389;-72
2022/03/03 10:49:45;;;;;;;1.30;0.50;;;;;;;7.13;68.23;101367.72;4973295;28;20108;-73
2022/03/03 10:52:15;;;;;;;1.58;0.90;;;;;;;7.19;67.92;101360.06;4973274;28;20025;-75
2022/03/03 10:55:10;;;;;;;1.40;0.55;;;;;;;7.16;68.03;101353.22;4972844;28;20073;-76
2022/03/03 10:57:42;;;;;;;2.10;0.90;;;;;;;7.20;67.78;101348.41;4972542;28;20026;-77
2022/03/03 11:00:10;;;;;;;1.67;0.70;;;;;;;7.20;68.18;101341.25;4987959;28;20041;-78
2022/03/03 11:02:38;;;;;;;0.90;0.60;;;;;;;7.22;68.03;101336.59;4973068;28;20026;-78
2022/03/03 11:05:08;;;;;;;2.60;0.70;;;;;;;7.22;68.17;101336.59;4973425;28;20085;-74
2022/03/03 11:07:35;;;;;;;0.68;0.55;;;;;;;7.29;68.12;101329.56;4974951;28;20054;-76
2022/03/03 11:10:03;;;;;;;0.80;0.57;;;;;;;7.32;68.12;101326.56;4974401;28;20033;-73
2022/03/03 11:12:30;;;;;;;0.93;0.60;;;;;;;7.33;68.55;101325.56;4973347;28;20043;-74
2022/03/03 11:14:57;;;;;;;0.70;0.45;;;;;;;7.36;68.29;101316.41;4987701;28;20106;-73
2022/03/03 11:17:24;;;;;;;2.60;0.47;;;;;;;7.36;68.05;101321.72;4986646;28;20045;-73
2022/03/03 11:19:52;;;;;;;0.77;0.60;;;;;;;7.32;68.59;101325.72;4973549;28;20031;-73
2022/03/03 11:22:19;;;;;;;1.23;0.85;;;;;;;7.38;68.61;101327.69;4973771;28;20049;-73
2022/03/03 11:24:46;;;;;;;1.35;0.57;;;;;;;7.40;67.86;101326.53;4973754;28;20086;-73
2022/03/03 11:27:12;;;;;;;0.75;0.50;;;;;;;7.43;67.41;101336.00;4972038;28;20027;-74
2022/03/03 11:29:38;;;;;;;1.40;0.90;;;;;;;7.46;67.46;101322.34;4971246;28;20367;-73
2022/03/03 11:32:17;;;;;;;1.52;0.60;;;;;;;7.39;68.06;101332.03;4973256;28;20027;-73
2022/03/03 11:34:49;;;;;;;2.20;0.75;;;;;;;7.43;68.25;101319.19;4971647;28;20125;-72